sensor_id;sensor_type;location;lat;lon;timestamp;pressure;altitude;pressure_sealevel;temperature;humidity
38852;BME280;24605;50.092;9.182;2023-12-20T00:01:07;152935.13;;;3.46;100.00
38852;BME280;24605;50.092;9.182;2023-12-20T00:03:35;152955.88;;;3.54;100.00
38852;BME280;24605;50.092;9.182;2023-12-20T00:06:01;152974.00;;;3.61;100.00
38852;BME280;24605;50.092;9.182;2023-12-20T00:08:28;152941.59;;;3.49;100.00
38852;BME280;24605;50.092;9.182;2023-12-20T00:10:55;152948.13;;;3.51;100.00
38852;BME280;24605;50.092;9.182;2023-12-20T00:13:21;152937.72;;;3.47;100.00
38852;BME280;24605;50.092;9.182;2023-12-20T00:15:47;152885.84;;;3.26;100.00
38852;BME280;24605;50.092;9.182;2023-12-20T00:18:14;152933.84;;;3.45;100.00
38852;BME280;24605;50.092;9.182;2023-12-20T00:20:42;152942.91;;;3.49;100.00
38852;BME280;24605;50.092;9.182;2023-12-20T00:23:08;152932.53;;;3.45;100.00
38852;BME280;24605;50.092;9.182;2023-12-20T00:25:35;152931.25;;;3.44;100.00
38852;BME280;24605;50.092;9.182;2023-12-20T00:28:00;152935.13;;;3.46;100.00
38852;BME280;24605;50.092;9.182;2023-12-20T00:30:27;152950.72;;;3.52;100.00
38852;BME280;24605;50.092;9.182;2023-12-20T00:32:54;152959.78;;;3.56;100.00
38852;BME280;24605;50.092;9.182;2023-12-20T00:35:20;152952.00;;;3.53;100.00
38852;BME280;24605;50.092;9.182;2023-12-20T00:37:48;152955.88;;;3.54;100.00
38852;BME280;24605;50.092;9.182;2023-12-20T00:40:14;152928.66;;;3.43;100.00
38852;BME280;24605;50.092;9.182;2023-12-20T00:42:41;152939.03;;;3.48;100.00
38852;BME280;24605;50.092;9.182;2023-12-20T00:45:08;152940.31;;;3.48;100.00
38852;BME280;24605;50.092;9.182;2023-12-20T00:47:34;152945.53;;;3.50;100.00
38852;BME280;24605;50.092;9.182;2023-12-20T00:50:01;152939.03;;;3.48;100.00
38852;BME280;24605;50.092;9.182;2023-12-20T00:52:28;152944.19;;;3.50;100.00
38852;BME280;24605;50.092;9.182;2023-12-20T00:54:56;152928.66;;;3.43;100.00
38852;BME280;24605;50.092;9.182;2023-12-20T00:57:22;152913.09;;;3.37;100.00
38852;BME280;24605;50.092;9.182;2023-12-20T00:59:49;152937.72;;;3.47;100.00
38852;BME280;24605;50.092;9.182;2023-12-20T01:02:15;152936.44;;;3.47;100.00
38852;BME280;24605;50.092;9.182;2023-12-20T01:04:42;152937.72;;;3.47;100.00
38852;BME280;24605;50.092;9.182;2023-12-20T01:07:08;152933.84;;;3.45;100.00
38852;BME280;24605;50.092;9.182;2023-12-20T01:09:35;152944.19;;;3.50;100.00
38852;BME280;24605;50.092;9.182;2023-12-20T01:12:02;152927.38;;;3.43;100.00
38852;BME280;24605;50.092;9.182;2023-12-20T01:14:29;152941.59;;;3.49;100.00
38852;BME280;24605;50.092;9.182;2023-12-20T01:16:55;152932.53;;;3.45;100.00
38852;BME280;24605;50.092;9.182;2023-12-20T01:19:22;152932.53;;;3.45;100.00
38852;BME280;24605;50.092;9.182;2023-12-20T01:21:49;152940.31;;;3.48;100.00
38852;BME280;24605;50.092;9.182;2023-12-20T01:24:15;152981.81;;;3.65;100.00
38852;BME280;24605;50.092;9.182;2023-12-20T01:26:42;152915.69;;;3.38;100.00
38852;BME280;24605;50.092;9.182;2023-12-20T01:29:10;152929.91;;;3.44;100.00
38852;BME280;24605;50.092;9.182;2023-12-20T01:31:36;152922.19;;;3.41;100.00
38852;BME280;24605;50.092;9.182;2023-12-20T01:34:02;152941.59;;;3.49;100.00
38852;BME280;24605;50.092;9.182;2023-12-20T01:36:29;152911.78;;;3.37;100.00
38852;BME280;24605;50.092;9.182;2023-12-20T01:38:55;152918.31;;;3.39;100.00
38852;BME280;24605;50.092;9.182;2023-12-20T01:41:22;152914.38;;;3.38;100.00
38852;BME280;24605;50.092;9.182;2023-12-20T01:43:48;152926.06;;;3.42;100.00
38852;BME280;24605;50.092;9.182;2023-12-20T01:46:16;152888.44;;;3.27;100.00
38852;BME280;24605;50.092;9.182;2023-12-20T01:48:43;152916.97;;;3.39;100.00
38852;BME280;24605;50.092;9.182;2023-12-20T01:51:10;152914.38;;;3.38;100.00
38852;BME280;24605;50.092;9.182;2023-12-20T01:53:38;152931.25;;;3.44;100.00
38852;BME280;24605;50.092;9.182;2023-12-20T01:56:06;152922.19;;;3.41;100.00
38852;BME280;24605;50.092;9.182;2023-12-20T01:58:33;152923.44;;;3.41;100.00
38852;BME280;24605;50.092;9.182;2023-12-20T02:01:00;152944.19;;;3.50;100.00
38852;BME280;24605;50.092;9.182;2023-12-20T02:03:28;152940.31;;;3.48;100.00
38852;BME280;24605;50.092;9.182;2023-12-20T02:05:54;152922.19;;;3.41;100.00
38852;BME280;24605;50.092;9.182;2023-12-20T02:08:21;152944.19;;;3.50;100.00
38852;BME280;24605;50.092;9.182;2023-12-20T02:10:47;152940.31;;;3.48;100.00
38852;BME280;24605;50.092;9.182;2023-12-20T02:13:14;152932.53;;;3.45;100.00
38852;BME280;24605;50.092;9.182;2023-12-20T02:15:40;152922.19;;;3.41;100.00
38852;BME280;24605;50.092;9.182;2023-12-20T02:18:08;152932.53;;;3.45;100.00
38852;BME280;24605;50.092;9.182;2023-12-20T02:20:36;152937.72;;;3.47;100.00
38852;BME280;24605;50.092;9.182;2023-12-20T02:23:04;152942.91;;;3.49;100.00
38852;BME280;24605;50.092;9.182;2023-12-20T02:25:31;152915.69;;;3.38;100.00
38852;BME280;24605;50.092;9.182;2023-12-20T02:27:57;152907.91;;;3.35;100.00
38852;BME280;24605;50.092;9.182;2023-12-20T02:30:24;152923.44;;;3.41;100.00
38852;BME280;24605;50.092;9.182;2023-12-20T02:32:51;152905.31;;;3.34;100.00
38852;BME280;24605;50.092;9.182;2023-12-20T02:35:18;152902.72;;;3.33;100.00
38852;BME280;24605;50.092;9.182;2023-12-20T02:37:45;152911.78;;;3.37;100.00
38852;BME280;24605;50.092;9.182;2023-12-20T02:40:12;152871.63;;;3.21;100.00
38852;BME280;24605;50.092;9.182;2023-12-20T02:42:39;152884.56;;;3.26;100.00
38852;BME280;24605;50.092;9.182;2023-12-20T02:45:06;152914.38;;;3.38;100.00
38852;BME280;24605;50.092;9.182;2023-12-20T02:47:33;152910.50;;;3.36;100.00
38852;BME280;24605;50.092;9.182;2023-12-20T02:49:59;152885.84;;;3.26;100.00
38852;BME280;24605;50.092;9.182;2023-12-20T02:52:28;152889.75;;;3.28;100.00
38852;BME280;24605;50.092;9.182;2023-12-20T02:54:55;152904.03;;;3.34;100.00
38852;BME280;24605;50.092;9.182;2023-12-20T02:57:22;152901.44;;;3.33;100.00
38852;BME280;24605;50.092;9.182;2023-12-20T02:59:49;152906.63;;;3.35;100.00
38852;BME280;24605;50.092;9.182;2023-12-20T03:02:15;152918.31;;;3.39;100.00
38852;BME280;24605;50.092;9.182;2023-12-20T03:04:42;152936.44;;;3.47;100.00
38852;BME280;24605;50.092;9.182;2023-12-20T03:07:08;152919.56;;;3.40;100.00
38852;BME280;24605;50.092;9.182;2023-12-20T03:09:35;152913.09;;;3.37;100.00
38852;BME280;24605;50.092;9.182;2023-12-20T03:12:01;152907.91;;;3.35;100.00
38852;BME280;24605;50.092;9.182;2023-12-20T03:14:29;152904.03;;;3.34;100.00
38852;BME280;24605;50.092;9.182;2023-12-20T03:16:55;152907.91;;;3.35;100.00
38852;BME280;24605;50.092;9.182;2023-12-20T03:19:22;152910.50;;;3.36;100.00
38852;BME280;24605;50.092;9.182;2023-12-20T03:21:48;152918.31;;;3.39;100.00
38852;BME280;24605;50.092;9.182;2023-12-20T03:24:15;152907.91;;;3.35;100.00
38852;BME280;24605;50.092;9.182;2023-12-20T03:26:41;152901.44;;;3.33;100.00
38852;BME280;24605;50.092;9.182;2023-12-20T03:29:08;152893.63;;;3.29;100.00
38852;BME280;24605;50.092;9.182;2023-12-20T03:31:35;152897.50;;;3.31;100.00
38852;BME280;24605;50.092;9.182;2023-12-20T03:34:02;152893.63;;;3.29;100.00
38852;BME280;24605;50.092;9.182;2023-12-20T03:36:28;152905.31;;;3.34;100.00
38852;BME280;24605;50.092;9.182;2023-12-20T03:38:55;152885.84;;;3.26;100.00
38852;BME280;24605;50.092;9.182;2023-12-20T03:41:21;152904.03;;;3.34;100.00
38852;BME280;24605;50.092;9.182;2023-12-20T03:43:47;152894.97;;;3.30;100.00
38852;BME280;24605;50.092;9.182;2023-12-20T03:46:14;152916.97;;;3.39;100.00
38852;BME280;24605;50.092;9.182;2023-12-20T03:48:41;152905.31;;;3.34;100.00
38852;BME280;24605;50.092;9.182;2023-12-20T03:51:08;152909.19;;;3.36;100.00
38852;BME280;24605;50.092;9.182;2023-12-20T03:53:34;152914.38;;;3.38;100.00
38852;BME280;24605;50.092;9.182;2023-12-20T03:56:01;152926.06;;;3.42;100.00
38852;BME280;24605;50.092;9.182;2023-12-20T03:58:27;152911.78;;;3.37;100.00
38852;BME280;24605;50.092;9.182;2023-12-20T04:00:54;152929.91;;;3.44;100.00
38852;BME280;24605;50.092;9.182;2023-12-20T04:03:20;152923.44;;;3.41;100.00
38852;BME280;24605;50.092;9.182;2023-12-20T04:05:48;152914.38;;;3.38;100.00
38852;BME280;24605;50.092;9.182;2023-12-20T04:08:14;152905.31;;;3.34;100.00
38852;BME280;24605;50.092;9.182;2023-12-20T04:10:41;152913.09;;;3.37;100.00
38852;BME280;24605;50.092;9.182;2023-12-20T04:13:07;152922.19;;;3.41;100.00
38852;BME280;24605;50.092;9.182;2023-12-20T04:15:33;152911.78;;;3.37;100.00
38852;BME280;24605;50.092;9.182;2023-12-20T04:18:00;152924.78;;;3.42;100.00
38852;BME280;24605;50.092;9.182;2023-12-20T04:20:27;152898.84;;;3.32;100.00
38852;BME280;24605;50.092;9.182;2023-12-20T04:22:54;152913.09;;;3.37;100.00
38852;BME280;24605;50.092;9.182;2023-12-20T04:25:21;152920.84;;;3.40;100.00
38852;BME280;24605;50.092;9.182;2023-12-20T04:27:47;152920.84;;;3.40;100.00
38852;BME280;24605;50.092;9.182;2023-12-20T04:30:14;152915.69;;;3.38;100.00
38852;BME280;24605;50.092;9.182;2023-12-20T04:32:40;152918.31;;;3.39;100.00
38852;BME280;24605;50.092;9.182;2023-12-20T04:35:07;152935.13;;;3.46;100.00
38852;BME280;24605;50.092;9.182;2023-12-20T04:37:34;152922.19;;;3.41;100.00
38852;BME280;24605;50.092;9.182;2023-12-20T04:40:02;152935.13;;;3.46;100.00
38852;BME280;24605;50.092;9.182;2023-12-20T04:42:30;152924.78;;;3.42;100.00
38852;BME280;24605;50.092;9.182;2023-12-20T04:44:57;152940.31;;;3.48;100.00
38852;BME280;24605;50.092;9.182;2023-12-20T04:47:23;152927.38;;;3.43;100.00
38852;BME280;24605;50.092;9.182;2023-12-20T04:49:49;152942.91;;;3.49;100.00
38852;BME280;24605;50.092;9.182;2023-12-20T04:52:16;152941.59;;;3.49;100.00
38852;BME280;24605;50.092;9.182;2023-12-20T04:54:42;152936.44;;;3.47;100.00
38852;BME280;24605;50.092;9.182;2023-12-20T04:57:10;152948.13;;;3.51;100.00
38852;BME280;24605;50.092;9.182;2023-12-20T04:59:36;152941.59;;;3.49;100.00
38852;BME280;24605;50.092;9.182;2023-12-20T05:02:03;152942.91;;;3.49;100.00
38852;BME280;24605;50.092;9.182;2023-12-20T05:04:29;152942.91;;;3.49;100.00
38852;BME280;24605;50.092;9.182;2023-12-20T05:06:56;152932.53;;;3.45;100.00
38852;BME280;24605;50.092;9.182;2023-12-20T05:09:23;152950.72;;;3.52;100.00
38852;BME280;24605;50.092;9.182;2023-12-20T05:11:49;152945.53;;;3.50;100.00
38852;BME280;24605;50.092;9.182;2023-12-20T05:14:17;152968.84;;;3.59;100.00
38852;BME280;24605;50.092;9.182;2023-12-20T05:16:43;152988.28;;;3.67;100.00
38852;BME280;24605;50.092;9.182;2023-12-20T05:19:10;152998.69;;;3.71;100.00
38852;BME280;24605;50.092;9.182;2023-12-20T05:21:36;152992.19;;;3.69;100.00
38852;BME280;24605;50.092;9.182;2023-12-20T05:24:03;152994.81;;;3.70;100.00
38852;BME280;24605;50.092;9.182;2023-12-20T05:26:29;152984.41;;;3.66;100.00
38852;BME280;24605;50.092;9.182;2023-12-20T05:28:56;152998.69;;;3.71;100.00
38852;BME280;24605;50.092;9.182;2023-12-20T05:31:24;152987.00;;;3.67;100.00
38852;BME280;24605;50.092;9.182;2023-12-20T05:33:50;152997.34;;;3.71;100.00
38852;BME280;24605;50.092;9.182;2023-12-20T05:36:16;153005.16;;;3.74;100.00
38852;BME280;24605;50.092;9.182;2023-12-20T05:38:43;153015.56;;;3.78;100.00
38852;BME280;24605;50.092;9.182;2023-12-20T05:41:09;152989.59;;;3.68;100.00
38852;BME280;24605;50.092;9.182;2023-12-20T05:43:36;152985.69;;;3.66;100.00
38852;BME280;24605;50.092;9.182;2023-12-20T05:46:03;152987.00;;;3.67;100.00
38852;BME280;24605;50.092;9.182;2023-12-20T05:48:31;153009.03;;;3.75;100.00
38852;BME280;24605;50.092;9.182;2023-12-20T05:50:57;152990.88;;;3.68;100.00
38852;BME280;24605;50.092;9.182;2023-12-20T05:53:24;152958.47;;;3.55;100.00
38852;BME280;24605;50.092;9.182;2023-12-20T05:55:50;152968.84;;;3.59;100.00
38852;BME280;24605;50.092;9.182;2023-12-20T05:58:16;152916.97;;;3.39;100.00
38852;BME280;24605;50.092;9.182;2023-12-20T06:00:43;152935.13;;;3.46;100.00
38852;BME280;24605;50.092;9.182;2023-12-20T06:03:09;152932.53;;;3.45;100.00
38852;BME280;24605;50.092;9.182;2023-12-20T06:05:37;152927.38;;;3.43;100.00
38852;BME280;24605;50.092;9.182;2023-12-20T06:08:04;152929.91;;;3.44;100.00
38852;BME280;24605;50.092;9.182;2023-12-20T06:10:31;152928.66;;;3.43;100.00
38852;BME280;24605;50.092;9.182;2023-12-20T06:12:57;152905.31;;;3.34;100.00
38852;BME280;24605;50.092;9.182;2023-12-20T06:15:24;152898.84;;;3.32;100.00
38852;BME280;24605;50.092;9.182;2023-12-20T06:17:51;152905.31;;;3.34;100.00
38852;BME280;24605;50.092;9.182;2023-12-20T06:20:18;152892.38;;;3.29;100.00
38852;BME280;24605;50.092;9.182;2023-12-20T06:22:47;152837.91;;;3.07;100.00
38852;BME280;24605;50.092;9.182;2023-12-20T06:25:14;152919.56;;;3.40;100.00
38852;BME280;24605;50.092;9.182;2023-12-20T06:27:40;152911.78;;;3.37;100.00
38852;BME280;24605;50.092;9.182;2023-12-20T06:30:07;152904.03;;;3.34;100.00
38852;BME280;24605;50.092;9.182;2023-12-20T06:32:35;152885.84;;;3.26;100.00
38852;BME280;24605;50.092;9.182;2023-12-20T06:35:03;152898.84;;;3.32;100.00
38852;BME280;24605;50.092;9.182;2023-12-20T06:37:30;152893.63;;;3.29;100.00
38852;BME280;24605;50.092;9.182;2023-12-20T06:39:58;152905.31;;;3.34;100.00
38852;BME280;24605;50.092;9.182;2023-12-20T06:42:24;152892.38;;;3.29;100.00
38852;BME280;24605;50.092;9.182;2023-12-20T06:44:51;152878.09;;;3.23;100.00
38852;BME280;24605;50.092;9.182;2023-12-20T06:47:17;152870.31;;;3.20;100.00
38852;BME280;24605;50.092;9.182;2023-12-20T06:49:43;152859.97;;;3.16;100.00
38852;BME280;24605;50.092;9.182;2023-12-20T06:52:10;152848.28;;;3.11;100.00
38852;BME280;24605;50.092;9.182;2023-12-20T06:54:37;152841.78;;;3.09;100.00
38852;BME280;24605;50.092;9.182;2023-12-20T06:57:04;152830.09;;;3.04;100.00
38852;BME280;24605;50.092;9.182;2023-12-20T06:59:31;152828.81;;;3.04;100.00
38852;BME280;24605;50.092;9.182;2023-12-20T07:01:57;152808.09;;;2.95;100.00
38852;BME280;24605;50.092;9.182;2023-12-20T07:04:24;152813.28;;;2.97;100.00
38852;BME280;24605;50.092;9.182;2023-12-20T07:06:50;152805.50;;;2.94;100.00
38852;BME280;24605;50.092;9.182;2023-12-20T07:09:19;152805.50;;;2.94;100.00
38852;BME280;24605;50.092;9.182;2023-12-20T07:11:45;152792.56;;;2.89;100.00
38852;BME280;24605;50.092;9.182;2023-12-20T07:14:13;152804.22;;;2.94;100.00
38852;BME280;24605;50.092;9.182;2023-12-20T07:16:40;152796.41;;;2.91;100.00
38852;BME280;24605;50.092;9.182;2023-12-20T07:19:06;152791.22;;;2.89;100.00
38852;BME280;24605;50.092;9.182;2023-12-20T07:21:33;152786.03;;;2.87;100.00
38852;BME280;24605;50.092;9.182;2023-12-20T07:23:59;152801.63;;;2.93;100.00
38852;BME280;24605;50.092;9.182;2023-12-20T07:26:26;152808.09;;;2.95;100.00
38852;BME280;24605;50.092;9.182;2023-12-20T07:28:53;152827.56;;;3.03;100.00
38852;BME280;24605;50.092;9.182;2023-12-20T07:31:20;152836.63;;;3.07;100.00
38852;BME280;24605;50.092;9.182;2023-12-20T07:33:47;152844.38;;;3.10;100.00
38852;BME280;24605;50.092;9.182;2023-12-20T07:36:13;152848.28;;;3.11;100.00
38852;BME280;24605;50.092;9.182;2023-12-20T07:38:40;152872.91;;;3.21;100.00
38852;BME280;24605;50.092;9.182;2023-12-20T07:41:09;152885.84;;;3.26;100.00
38852;BME280;24605;50.092;9.182;2023-12-20T07:43:35;152893.63;;;3.29;100.00
38852;BME280;24605;50.092;9.182;2023-12-20T07:46:04;152870.31;;;3.20;100.00
38852;BME280;24605;50.092;9.182;2023-12-20T07:48:34;152902.72;;;3.33;100.00
38852;BME280;24605;50.092;9.182;2023-12-20T07:51:00;152904.03;;;3.34;100.00
38852;BME280;24605;50.092;9.182;2023-12-20T07:53:27;152904.03;;;3.34;100.00
38852;BME280;24605;50.092;9.182;2023-12-20T07:55:53;152885.84;;;3.26;100.00
38852;BME280;24605;50.092;9.182;2023-12-20T07:58:19;152881.97;;;3.25;100.00
38852;BME280;24605;50.092;9.182;2023-12-20T08:00:46;152879.38;;;3.24;100.00
38852;BME280;24605;50.092;9.182;2023-12-20T08:03:13;152879.38;;;3.24;100.00
38852;BME280;24605;50.092;9.182;2023-12-20T08:05:40;152885.84;;;3.26;100.00
38852;BME280;24605;50.092;9.182;2023-12-20T08:08:07;152885.84;;;3.26;100.00
38852;BME280;24605;50.092;9.182;2023-12-20T08:10:34;152866.44;;;3.19;100.00
38852;BME280;24605;50.092;9.182;2023-12-20T08:13:00;152907.91;;;3.35;100.00
38852;BME280;24605;50.092;9.182;2023-12-20T08:15:26;152918.31;;;3.39;100.00
38852;BME280;24605;50.092;9.182;2023-12-20T08:17:53;152904.03;;;3.34;100.00
38852;BME280;24605;50.092;9.182;2023-12-20T08:20:19;152845.69;;;3.10;100.00
38852;BME280;24605;50.092;9.182;2023-12-20T08:22:47;152920.84;;;3.40;100.00
38852;BME280;24605;50.092;9.182;2023-12-20T08:25:14;152920.84;;;3.40;100.00
38852;BME280;24605;50.092;9.182;2023-12-20T08:27:40;152927.38;;;3.43;100.00
38852;BME280;24605;50.092;9.182;2023-12-20T08:30:08;152936.44;;;3.47;100.00
38852;BME280;24605;50.092;9.182;2023-12-20T08:32:35;152915.69;;;3.38;100.00
38852;BME280;24605;50.092;9.182;2023-12-20T08:35:02;152939.03;;;3.48;100.00
38852;BME280;24605;50.092;9.182;2023-12-20T08:37:29;152935.13;;;3.46;100.00
38852;BME280;24605;50.092;9.182;2023-12-20T08:39:57;152948.13;;;3.51;100.00
38852;BME280;24605;50.092;9.182;2023-12-20T08:42:23;152952.00;;;3.53;100.00
38852;BME280;24605;50.092;9.182;2023-12-20T08:44:56;152931.25;;;3.44;100.00
38852;BME280;24605;50.092;9.182;2023-12-20T08:47:22;152932.53;;;3.45;100.00
38852;BME280;24605;50.092;9.182;2023-12-20T08:49:49;152946.78;;;3.51;100.00
38852;BME280;24605;50.092;9.182;2023-12-20T08:52:15;152928.66;;;3.43;100.00
38852;BME280;24605;50.092;9.182;2023-12-20T08:54:42;152923.44;;;3.41;100.00
38852;BME280;24605;50.092;9.182;2023-12-20T08:57:09;152928.66;;;3.43;100.00
38852;BME280;24605;50.092;9.182;2023-12-20T08:59:36;152952.00;;;3.53;100.00
38852;BME280;24605;50.092;9.182;2023-12-20T09:02:03;152953.25;;;3.53;100.00
38852;BME280;24605;50.092;9.182;2023-12-20T09:04:29;152935.13;;;3.46;100.00
38852;BME280;24605;50.092;9.182;2023-12-20T09:06:56;152919.56;;;3.40;100.00
38852;BME280;24605;50.092;9.182;2023-12-20T09:09:22;152950.72;;;3.52;100.00
38852;BME280;24605;50.092;9.182;2023-12-20T09:11:48;152948.13;;;3.51;100.00
38852;BME280;24605;50.092;9.182;2023-12-20T09:14:17;152975.34;;;3.62;100.00
38852;BME280;24605;50.092;9.182;2023-12-20T09:16:44;152907.91;;;3.35;100.00
38852;BME280;24605;50.092;9.182;2023-12-20T09:19:10;152904.03;;;3.34;100.00
38852;BME280;24605;50.092;9.182;2023-12-20T09:21:37;152936.44;;;3.47;100.00
38852;BME280;24605;50.092;9.182;2023-12-20T09:24:03;152932.53;;;3.45;100.00
38852;BME280;24605;50.092;9.182;2023-12-20T09:26:30;152931.25;;;3.44;100.00
38852;BME280;24605;50.092;9.182;2023-12-20T09:28:56;152945.53;;;3.50;100.00
38852;BME280;24605;50.092;9.182;2023-12-20T09:31:24;152968.84;;;3.59;100.00
38852;BME280;24605;50.092;9.182;2023-12-20T09:33:50;152987.00;;;3.67;100.00
38852;BME280;24605;50.092;9.182;2023-12-20T09:36:17;152994.81;;;3.70;100.00
38852;BME280;24605;50.092;9.182;2023-12-20T09:38:43;152963.66;;;3.57;100.00
38852;BME280;24605;50.092;9.182;2023-12-20T09:41:10;153003.88;;;3.73;100.00
38852;BME280;24605;50.092;9.182;2023-12-20T09:43:37;153005.16;;;3.74;100.00
38852;BME280;24605;50.092;9.182;2023-12-20T09:46:05;153006.47;;;3.74;100.00
38852;BME280;24605;50.092;9.182;2023-12-20T09:48:34;153011.63;;;3.76;100.00
38852;BME280;24605;50.092;9.182;2023-12-20T09:51:02;153034.97;;;3.86;100.00
38852;BME280;24605;50.092;9.182;2023-12-20T09:53:30;153046.66;;;3.90;100.00
38852;BME280;24605;50.092;9.182;2023-12-20T09:55:59;153007.75;;;3.75;100.00
38852;BME280;24605;50.092;9.182;2023-12-20T09:58:26;153046.66;;;3.90;100.00
38852;BME280;24605;50.092;9.182;2023-12-20T10:00:53;152974.00;;;3.61;100.00
38852;BME280;24605;50.092;9.182;2023-12-20T10:03:24;152959.78;;;3.56;100.00
38852;BME280;24605;50.092;9.182;2023-12-20T10:05:54;153014.22;;;3.78;100.00
38852;BME280;24605;50.092;9.182;2023-12-20T10:08:22;153007.75;;;3.75;100.00
38852;BME280;24605;50.092;9.182;2023-12-20T10:10:50;153005.16;;;3.74;100.00
38852;BME280;24605;50.092;9.182;2023-12-20T10:13:16;153018.09;;;3.79;100.00
38852;BME280;24605;50.092;9.182;2023-12-20T10:15:43;153002.56;;;3.73;100.00
38852;BME280;24605;50.092;9.182;2023-12-20T10:18:11;153025.91;;;3.82;100.00
38852;BME280;24605;50.092;9.182;2023-12-20T10:20:40;153032.38;;;3.85;100.00
38852;BME280;24605;50.092;9.182;2023-12-20T10:23:08;153011.63;;;3.76;100.00
38852;BME280;24605;50.092;9.182;2023-12-20T10:25:34;153020.69;;;3.80;100.00
38852;BME280;24605;50.092;9.182;2023-12-20T10:28:12;153049.25;;;3.91;100.00
38852;BME280;24605;50.092;9.182;2023-12-20T10:30:40;153045.38;;;3.90;100.00
38852;BME280;24605;50.092;9.182;2023-12-20T10:33:07;153067.41;;;3.99;100.00
38852;BME280;24605;50.092;9.182;2023-12-20T10:35:34;153040.19;;;3.88;100.00
38852;BME280;24605;50.092;9.182;2023-12-20T10:38:04;153012.94;;;3.77;100.00
38852;BME280;24605;50.092;9.182;2023-12-20T10:40:34;153064.78;;;3.98;100.00
38852;BME280;24605;50.092;9.182;2023-12-20T10:43:02;153041.44;;;3.88;100.00
38852;BME280;24605;50.092;9.182;2023-12-20T10:45:28;153029.78;;;3.84;100.00
38852;BME280;24605;50.092;9.182;2023-12-20T10:47:56;153071.31;;;4.00;100.00
38852;BME280;24605;50.092;9.182;2023-12-20T10:50:24;153077.81;;;4.03;100.00
38852;BME280;24605;50.092;9.182;2023-12-20T10:52:52;153085.53;;;4.06;100.00
38852;BME280;24605;50.092;9.182;2023-12-20T10:55:21;153088.16;;;4.07;100.00
38852;BME280;24605;50.092;9.182;2023-12-20T10:57:49;153111.50;;;4.16;100.00
38852;BME280;24605;50.092;9.182;2023-12-20T11:00:18;153166.00;;;4.38;100.00
38852;BME280;24605;50.092;9.182;2023-12-20T11:02:44;153133.59;;;4.25;100.00
38852;BME280;24605;50.092;9.182;2023-12-20T11:05:23;153108.91;;;4.15;100.00
38852;BME280;24605;50.092;9.182;2023-12-20T11:07:56;153101.16;;;4.12;100.00
38852;BME280;24605;50.092;9.182;2023-12-20T11:10:28;153138.78;;;4.27;100.00
38852;BME280;24605;50.092;9.182;2023-12-20T11:13:05;153158.22;;;4.35;100.00
38852;BME280;24605;50.092;9.182;2023-12-20T11:15:35;153194.59;;;4.49;100.00
38852;BME280;24605;50.092;9.182;2023-12-20T11:18:02;153204.94;;;4.53;100.00
38852;BME280;24605;50.092;9.182;2023-12-20T11:20:36;153247.78;;;4.70;100.00
38852;BME280;24605;50.092;9.182;2023-12-20T11:23:03;153243.84;;;4.69;100.00
38852;BME280;24605;50.092;9.182;2023-12-20T11:25:29;153290.59;;;4.88;100.00
38852;BME280;24605;50.092;9.182;2023-12-20T11:28:10;153251.66;;;4.72;100.00
38852;BME280;24605;50.092;9.182;2023-12-20T11:30:46;153236.09;;;4.66;100.00
38852;BME280;24605;50.092;9.182;2023-12-20T11:33:13;153252.94;;;4.73;100.00
38852;BME280;24605;50.092;9.182;2023-12-20T11:35:40;153290.59;;;4.88;100.00
38852;BME280;24605;50.092;9.182;2023-12-20T11:38:08;153284.09;;;4.85;100.00
38852;BME280;24605;50.092;9.182;2023-12-20T11:40:35;153303.59;;;4.93;100.00
38852;BME280;24605;50.092;9.182;2023-12-20T11:43:02;153298.38;;;4.91;100.00
38852;BME280;24605;50.092;9.182;2023-12-20T11:45:30;153308.75;;;4.95;100.00
38852;BME280;24605;50.092;9.182;2023-12-20T11:47:57;153293.19;;;4.89;100.00
38852;BME280;24605;50.092;9.182;2023-12-20T11:50:24;153307.47;;;4.94;100.00
38852;BME280;24605;50.092;9.182;2023-12-20T11:52:52;153285.38;;;4.85;100.00
38852;BME280;24605;50.092;9.182;2023-12-20T11:55:19;153277.63;;;4.82;100.00
38852;BME280;24605;50.092;9.182;2023-12-20T11:57:45;153221.81;;;4.60;100.00
38852;BME280;24605;50.092;9.182;2023-12-20T12:00:13;153241.25;;;4.68;100.00
38852;BME280;24605;50.092;9.182;2023-12-20T12:02:41;153149.13;;;4.31;100.00
38852;BME280;24605;50.092;9.182;2023-12-20T12:05:08;153238.69;;;4.67;100.00
38852;BME280;24605;50.092;9.182;2023-12-20T12:07:35;153259.47;;;4.75;100.00
38852;BME280;24605;50.092;9.182;2023-12-20T12:10:01;153256.88;;;4.74;100.00
38852;BME280;24605;50.092;9.182;2023-12-20T12:12:29;153252.94;;;4.73;100.00
38852;BME280;24605;50.092;9.182;2023-12-20T12:14:56;153267.22;;;4.78;100.00
38852;BME280;24605;50.092;9.182;2023-12-20T12:17:23;153293.19;;;4.89;100.00
38852;BME280;24605;50.092;9.182;2023-12-20T12:20:02;153264.63;;;4.77;100.00
38852;BME280;24605;50.092;9.182;2023-12-20T12:22:29;153263.34;;;4.77;100.00
38852;BME280;24605;50.092;9.182;2023-12-20T12:24:59;153268.53;;;4.79;100.00
38852;BME280;24605;50.092;9.182;2023-12-20T12:27:25;153206.22;;;4.54;100.00
38852;BME280;24605;50.092;9.182;2023-12-20T12:30:02;153232.16;;;4.64;100.00
38852;BME280;24605;50.092;9.182;2023-12-20T12:32:28;153206.22;;;4.54;100.00
38852;BME280;24605;50.092;9.182;2023-12-20T12:34:56;153236.09;;;4.66;100.00
38852;BME280;24605;50.092;9.182;2023-12-20T12:37:23;153239.97;;;4.67;100.00
38852;BME280;24605;50.092;9.182;2023-12-20T12:39:50;153236.09;;;4.66;100.00
38852;BME280;24605;50.092;9.182;2023-12-20T12:42:16;153241.25;;;4.68;100.00
38852;BME280;24605;50.092;9.182;2023-12-20T12:44:43;153289.31;;;4.87;100.00
38852;BME280;24605;50.092;9.182;2023-12-20T12:47:09;153306.16;;;4.94;100.00
38852;BME280;24605;50.092;9.182;2023-12-20T12:49:36;153306.16;;;4.94;100.00